Time;durP1;ratioP1;P1;durP2;ratioP2;P2;SDS_P1;SDS_P2;PMS_P1;PMS_P2;Temp;Humidity;BMP_temperature;BMP_pressure;BME280_temperature;BME280_humidity;BME280_pressure;Samples;Min_cycle;Max_cycle;Signal;HPM_P1;HPM_P2
2022/11/23 00:01:18;;;;;;;6.82;2.33;;;;;;;7.85;99.27;99596.13;5032952;28;96762;-31
2022/11/23 00:03:45;;;;;;;4.68;2.17;;;;;;;7.85;99.53;99596.13;5032254;28;98841;-31
2022/11/23 00:06:11;;;;;;;2.50;1.95;;;;;;;7.89;99.37;99597.63;5048051;27;100974;-33
2022/11/23 00:08:37;;;;;;;4.30;1.70;;;;;;;7.90;99.08;99601.19;5014799;28;96772;-31
2022/11/23 00:11:02;;;;;;;3.08;1.73;;;;;;;7.88;99.41;99602.16;5032878;28;96697;-31
2022/11/23 00:13:27;;;;;;;2.55;1.67;;;;;;;7.90;99.34;99604.75;5032840;28;98206;-31
2022/11/23 00:15:53;;;;;;;2.47;1.52;;;;;;;7.90;99.46;99606.59;5032584;28;97866;-31
2022/11/23 00:18:18;;;;;;;4.43;2.30;;;;;;;7.92;98.96;99621.69;5032875;28;96537;-31
2022/11/23 00:20:44;;;;;;;2.85;1.83;;;;;;;7.90;99.63;99620.91;5033160;28;96718;-31
2022/11/23 00:23:09;;;;;;;3.53;2.60;;;;;;;7.93;99.51;99617.16;5032630;28;97422;-30
2022/11/23 00:25:34;;;;;;;3.70;2.13;;;;;;;7.94;99.31;99624.28;5031757;27;105948;-31
2022/11/23 00:28:00;;;;;;;5.45;1.70;;;;;;;7.95;99.38;99618.75;5032548;28;96689;-31
2022/11/23 00:30:28;;;;;;;5.10;2.13;;;;;;;7.95;99.18;99626.84;5032873;28;96795;-31
2022/11/23 00:32:54;;;;;;;5.47;1.95;;;;;;;7.97;99.29;99637.53;5014167;28;100925;-30
2022/11/23 00:35:20;;;;;;;6.60;2.50;;;;;;;7.99;99.16;99644.53;5013688;28;101275;-30
2022/11/23 00:37:45;;;;;;;4.90;2.38;;;;;;;8.00;99.61;99642.72;5032517;28;96437;-32
2022/11/23 00:40:11;;;;;;;5.85;1.77;;;;;;;7.98;99.48;99640.09;5032413;28;102949;-31
2022/11/23 00:42:36;;;;;;;2.95;1.60;;;;;;;8.00;99.66;99635.47;5032415;28;97549;-31
2022/11/23 00:45:02;;;;;;;4.90;2.33;;;;;;;8.01;99.57;99642.59;5032827;28;101919;-32
2022/11/23 00:47:27;;;;;;;2.40;1.48;;;;;;;8.01;99.76;99641.75;5032362;28;96503;-30
2022/11/23 00:49:52;;;;;;;3.85;1.98;;;;;;;7.99;99.99;99636.47;5031743;28;99103;-31
2022/11/23 00:52:18;;;;;;;5.55;2.05;;;;;;;8.01;99.77;99637.22;5031734;28;100615;-31
2022/11/23 00:54:43;;;;;;;3.75;1.85;;;;;;;8.00;99.90;99640.00;5031980;28;105688;-31
2022/11/23 00:57:08;;;;;;;5.40;2.25;;;;;;;7.99;99.50;99631.06;5032440;28;96522;-31
2022/11/23 00:59:34;;;;;;;6.95;2.08;;;;;;;8.02;99.63;99640.75;5032442;28;96573;-31
2022/11/23 01:01:59;;;;;;;5.45;1.95;;;;;;;8.03;99.66;99637.97;5032021;28;103691;-31
2022/11/23 01:04:24;;;;;;;6.80;2.38;;;;;;;8.02;99.79;99638.94;5031887;28;97783;-30
2022/11/23 01:06:55;;;;;;;3.03;1.85;;;;;;;8.01;99.63;99633.66;5032065;28;96454;-31
2022/11/23 01:09:23;;;;;;;2.80;1.95;;;;;;;8.00;99.68;99626.53;5014212;28;96644;-31
2022/11/23 01:11:49;;;;;;;2.47;1.80;;;;;;;7.97;99.25;99633.00;5013588;28;99148;-32
2022/11/23 01:14:16;;;;;;;1.73;1.20;;;;;;;7.96;99.74;99635.78;5013669;28;101246;-31
2022/11/23 01:16:42;;;;;;;3.28;1.58;;;;;;;7.92;99.84;99637.84;5012979;28;97468;-30
2022/11/23 01:19:10;;;;;;;3.33;1.63;;;;;;;7.91;99.57;99646.03;5013336;28;97269;-30
2022/11/23 01:21:36;;;;;;;2.17;1.38;;;;;;;7.87;99.61;99643.56;5013529;28;101012;-31
2022/11/23 01:24:13;;;;;;;1.95;1.08;;;;;;;7.90;99.74;99652.41;5013454;28;101474;-31
2022/11/23 01:26:40;;;;;;;1.30;0.90;;;;;;;7.86;99.88;99646.38;5031772;28;96663;-31
2022/11/23 01:29:06;;;;;;;3.40;1.38;;;;;;;7.87;100.00;99658.88;5030398;28;96554;-31
2022/11/23 01:31:31;;;;;;;1.55;1.20;;;;;;;7.84;100.00;99657.28;5031725;28;97360;-31
2022/11/23 01:33:59;;;;;;;5.32;1.58;;;;;;;7.86;99.90;99649.06;5032045;27;97193;-31
2022/11/23 01:36:28;;;;;;;2.60;1.40;;;;;;;7.88;99.75;99658.75;5031799;28;96474;-30
2022/11/23 01:38:54;;;;;;;2.58;1.33;;;;;;;7.88;99.63;99658.75;5030385;28;96789;-32
2022/11/23 01:41:22;;;;;;;4.55;1.75;;;;;;;7.90;99.68;99657.81;5029641;28;101169;-30
2022/11/23 01:43:48;;;;;;;2.00;1.23;;;;;;;7.87;99.47;99658.88;5030074;28;101375;-32
2022/11/23 01:46:14;;;;;;;3.92;1.05;;;;;;;7.88;99.70;99666.00;5029975;28;96578;-30
2022/11/23 01:48:46;;;;;;;6.53;2.30;;;;;;;7.86;99.63;99667.94;5033558;28;96809;-31
2022/11/23 01:51:14;;;;;;;3.47;1.33;;;;;;;7.87;99.49;99675.06;5034898;27;99709;-31
2022/11/23 01:53:41;;;;;;;1.83;0.77;;;;;;;7.82;99.60;99669.13;5033559;28;100938;-31
2022/11/23 01:56:09;;;;;;;1.50;0.88;;;;;;;7.81;99.54;99664.69;5033573;28;96626;-32
2022/11/23 01:58:38;;;;;;;2.00;1.15;;;;;;;7.78;99.64;99668.47;5035272;28;96734;-30
2022/11/23 02:01:06;;;;;;;8.50;1.70;;;;;;;7.80;99.42;99666.53;5033235;28;101014;-31
2022/11/23 02:03:33;;;;;;;2.38;1.55;;;;;;;7.78;99.38;99667.59;5033439;28;100840;-31
2022/11/23 02:06:03;;;;;;;4.35;1.33;;;;;;;7.75;99.69;99659.75;5032924;28;97158;-30
2022/11/23 02:08:30;;;;;;;3.83;1.58;;;;;;;7.79;99.67;99674.72;5033356;28;97571;-31
2022/11/23 02:10:57;;;;;;;2.50;0.85;;;;;;;7.75;99.40;99659.75;5032895;28;100963;-31
2022/11/23 02:13:24;;;;;;;1.50;0.93;;;;;;;7.76;99.39;99673.09;5033347;28;100684;-31
2022/11/23 02:15:51;;;;;;;3.30;1.20;;;;;;;7.71;99.64;99669.84;5033159;28;96631;-31
2022/11/23 02:18:22;;;;;;;6.28;1.40;;;;;;;7.72;99.67;99676.09;5033331;28;96932;-31
2022/11/23 02:20:48;;;;;;;3.70;1.20;;;;;;;7.68;99.70;99664.69;5033181;28;101036;-30
2022/11/23 02:23:38;;;;;;;3.13;1.63;;;;;;;7.73;99.79;99667.06;5033375;28;101066;-31
2022/11/23 02:26:19;;;;;;;3.33;0.98;;;;;;;7.72;99.66;99665.31;5034274;27;96784;-31
2022/11/23 02:28:51;;;;;;;1.55;0.98;;;;;;;7.73;99.75;99665.22;5034721;28;96560;-32
2022/11/23 02:31:16;;;;;;;3.90;1.80;;;;;;;7.77;99.52;99663.16;5015823;28;101611;-31
2022/11/23 02:33:41;;;;;;;5.05;2.15;;;;;;;7.76;99.55;99667.72;5034161;28;99044;-30
2022/11/23 02:36:40;;;;;;;2.72;1.42;;;;;;;7.75;99.82;99673.22;5033840;28;102317;-30
2022/11/23 02:39:14;;;;;;;2.40;1.67;;;;;;;7.79;99.89;99666.63;5016205;28;97424;-31
2022/11/23 02:41:44;;;;;;;2.13;1.38;;;;;;;7.79;99.94;99662.09;5016088;28;101008;-30
2022/11/23 02:44:33;;;;;;;3.05;1.77;;;;;;;7.81;99.98;99667.38;5015909;28;101039;-31
2022/11/23 02:46:58;;;;;;;3.60;1.80;;;;;;;7.84;99.79;99670.75;5013481;28;96829;-31
2022/11/23 02:49:24;;;;;;;3.70;1.95;;;;;;;7.84;99.86;99665.34;5034784;28;96714;-31
2022/11/23 02:51:50;;;;;;;2.75;1.77;;;;;;;7.82;99.82;99669.13;5015856;28;101032;-32
2022/11/23 02:54:16;;;;;;;3.95;2.03;;;;;;;7.83;99.70;99671.69;5015885;28;101741;-31
2022/11/23 02:56:41;;;;;;;1.88;1.42;;;;;;;7.84;99.63;99664.47;5033679;28;96732;-32
2022/11/23 02:59:07;;;;;;;2.72;1.75;;;;;;;7.85;99.77;99667.06;5032435;27;96811;-31
2022/11/23 03:01:32;;;;;;;3.40;2.03;;;;;;;7.87;99.69;99670.53;5034114;28;97360;-31
2022/11/23 03:03:57;;;;;;;2.47;1.90;;;;;;;7.87;99.64;99661.59;5034004;28;97848;-30
2022/11/23 03:06:23;;;;;;;2.83;1.90;;;;;;;7.90;99.70;99682.94;5033982;28;96702;-31
2022/11/23 03:08:48;;;;;;;2.28;1.77;;;;;;;7.90;99.60;99669.44;5034078;28;96854;-30
2022/11/23 03:11:13;;;;;;;3.45;2.33;;;;;;;7.88;99.73;99658.75;5033807;28;98085;-31
2022/11/23 03:13:39;;;;;;;8.10;3.08;;;;;;;7.89;99.67;99667.75;5033842;28;97747;-31
2022/11/23 03:16:05;;;;;;;3.00;2.15;;;;;;;7.91;99.67;99673.84;5033799;28;96813;-34
2022/11/23 03:18:30;;;;;;;5.45;1.75;;;;;;;7.90;99.99;99676.69;5033816;28;96749;-33
2022/11/23 03:21:02;;;;;;;4.32;2.10;;;;;;;7.91;99.98;99679.25;5032856;28;99755;-31
2022/11/23 03:23:27;;;;;;;6.38;2.78;;;;;;;7.90;99.90;99677.53;5015366;28;100914;-31
2022/11/23 03:25:58;;;;;;;5.72;1.98;;;;;;;7.93;99.81;99685.41;5033522;27;96704;-31
2022/11/23 03:28:23;;;;;;;8.20;2.70;;;;;;;7.93;99.50;99674.63;5033765;28;96789;-31
2022/11/23 03:30:49;;;;;;;2.33;1.90;;;;;;;7.96;99.21;99689.72;5033345;28;99371;-30
2022/11/23 03:33:14;;;;;;;3.22;1.48;;;;;;;7.98;99.24;99694.03;5033434;28;97643;-31
2022/11/23 03:35:40;;;;;;;2.03;1.55;;;;;;;7.97;99.07;99697.72;5033846;28;96513;-33
2022/11/23 03:38:05;;;;;;;2.65;1.55;;;;;;;7.96;98.90;99693.31;5033449;28;103332;-31
2022/11/23 03:40:30;;;;;;;3.65;2.17;;;;;;;7.99;98.77;99695.78;5033113;28;99296;-30
2022/11/23 03:42:56;;;;;;;1.02;0.82;;;;;;;8.01;98.59;99690.28;5033176;28;97870;-31
2022/11/23 03:45:21;;;;;;;1.88;1.30;;;;;;;7.99;98.46;99689.53;5032547;28;97652;-31
2022/11/23 03:47:47;;;;;;;1.83;1.17;;;;;;;8.01;98.31;99687.59;5032938;28;96864;-32
2022/11/23 03:50:12;;;;;;;1.10;1.00;;;;;;;8.00;98.26;99686.72;5033281;28;97858;-31
2022/11/23 03:52:37;;;;;;;2.70;1.63;;;;;;;8.03;98.23;99681.13;5033088;28;97366;-31
2022/11/23 03:55:03;;;;;;;2.40;1.27;;;;;;;8.03;98.08;99685.63;5033214;28;96573;-30
2022/11/23 03:57:28;;;;;;;2.40;1.48;;;;;;;8.05;98.17;99683.69;5033029;28;96811;-31
2022/11/23 03:59:54;;;;;;;1.27;1.05;;;;;;;8.04;98.13;99687.38;5033242;28;98058;-31
2022/11/23 04:02:19;;;;;;;7.55;2.28;;;;;;;8.06;98.27;99693.53;5033127;28;106579;-31
2022/11/23 04:04:44;;;;;;;2.15;1.80;;;;;;;8.07;98.07;99692.53;5032990;28;96640;-32
2022/11/23 04:07:10;;;;;;;2.33;1.48;;;;;;;8.08;98.10;99696.97;5014780;28;96732;-31
2022/11/23 04:09:35;;;;;;;7.03;2.10;;;;;;;8.07;97.95;99690.69;5031304;27;104395;-30
2022/11/23 04:12:00;;;;;;;3.17;1.95;;;;;;;8.11;97.87;99691.38;5032776;28;98048;-30
2022/11/23 04:14:26;;;;;;;3.60;2.17;;;;;;;8.10;97.68;99686.94;5033068;28;96513;-30
2022/11/23 04:16:51;;;;;;;7.72;2.30;;;;;;;8.13;97.72;99693.94;5032371;28;96812;-30
2022/11/23 04:19:16;;;;;;;5.20;2.25;;;;;;;8.11;97.43;99687.81;5032713;28;97675;-31
2022/11/23 04:21:42;;;;;;;3.22;1.80;;;;;;;8.13;97.66;99692.13;5032779;28;97966;-30
2022/11/23 04:24:07;;;;;;;6.35;1.75;;;;;;;8.14;97.61;99701.94;5032603;28;96657;-31
2022/11/23 04:26:32;;;;;;;3.15;2.03;;;;;;;8.09;97.36;99680.66;5032854;27;96909;-31
2022/11/23 04:28:58;;;;;;;4.50;1.70;;;;;;;8.15;97.34;99689.31;5032685;28;100913;-31
2022/11/23 04:31:23;;;;;;;5.57;1.55;;;;;;;8.12;97.03;99679.59;5032441;28;99189;-31
2022/11/23 04:33:48;;;;;;;3.35;1.60;;;;;;;8.11;96.97;99691.38;5032054;28;96745;-30
2022/11/23 04:36:14;;;;;;;1.75;1.10;;;;;;;8.12;96.44;99692.22;5032685;28;96725;-31
2022/11/23 04:38:39;;;;;;;3.65;1.60;;;;;;;8.12;96.84;99689.53;5032459;28;97837;-31
2022/11/23 04:41:04;;;;;;;1.92;1.42;;;;;;;8.10;96.70;99686.94;5032092;28;101177;-31
2022/11/23 04:43:30;;;;;;;4.60;1.73;;;;;;;8.09;96.61;99688.75;5032407;28;96625;-31
2022/11/23 04:45:56;;;;;;;4.35;1.77;;;;;;;8.08;96.74;99688.88;5032340;28;96762;-31
2022/11/23 04:48:21;;;;;;;2.13;1.13;;;;;;;8.06;96.49;99680.03;5032405;28;98004;-31
2022/11/23 04:50:47;;;;;;;1.27;1.08;;;;;;;8.05;96.02;99691.78;5032616;28;97423;-32
2022/11/23 04:53:12;;;;;;;5.20;2.00;;;;;;;8.05;95.79;99681.84;5032369;28;96547;-32
2022/11/23 04:55:38;;;;;;;3.20;1.35;;;;;;;8.04;95.84;99681.97;5032365;28;96729;-31
2022/11/23 04:58:03;;;;;;;3.83;1.77;;;;;;;8.03;95.89;99683.81;5031504;28;98769;-31
2022/11/23 05:00:28;;;;;;;2.05;1.15;;;;;;;8.00;95.47;99680.47;5032139;28;97266;-31
2022/11/23 05:02:54;;;;;;;1.63;1.00;;;;;;;7.99;95.49;99690.38;5032281;28;96481;-31
2022/11/23 05:05:19;;;;;;;2.33;1.70;;;;;;;7.99;95.81;99693.09;5032074;28;96785;-30
2022/11/23 05:07:45;;;;;;;1.70;1.25;;;;;;;8.00;95.65;99697.50;5031729;28;99207;-31
2022/11/23 05:10:10;;;;;;;3.13;1.98;;;;;;;7.97;95.14;99691.47;5031606;28;99207;-32
2022/11/23 05:12:36;;;;;;;5.18;2.05;;;;;;;7.97;95.61;99697.72;5013875;28;96528;-31
2022/11/23 05:15:03;;;;;;;3.92;2.17;;;;;;;7.92;95.26;99699.88;5032394;28;96735;-30
2022/11/23 05:17:28;;;;;;;26.00;1.88;;;;;;;7.91;95.05;99691.88;5013539;28;101894;-31
2022/11/23 05:19:55;;;;;;;4.38;1.48;;;;;;;7.91;95.31;99703.53;5031619;28;104329;-31
2022/11/23 05:22:20;;;;;;;8.18;2.50;;;;;;;7.90;94.84;99700.94;5014624;28;97028;-31
2022/11/23 05:24:45;;;;;;;4.40;1.75;;;;;;;7.87;95.13;99686.72;5035273;27;96776;-31
2022/11/23 05:27:11;;;;;;;3.35;1.77;;;;;;;7.90;94.92;99698.25;5035167;28;99615;-31
2022/11/23 05:29:36;;;;;;;1.95;1.40;;;;;;;7.85;95.05;99694.03;5035575;28;97284;-31
2022/11/23 05:32:02;;;;;;;7.85;1.90;;;;;;;7.85;94.83;99703.97;5035321;28;96521;-31
2022/11/23 05:34:27;;;;;;;1.52;1.20;;;;;;;7.83;95.11;99697.81;5035521;28;96697;-30
2022/11/23 05:36:52;;;;;;;3.50;1.80;;;;;;;7.79;95.09;99693.59;5035362;28;97752;-30
2022/11/23 05:39:18;;;;;;;3.83;1.30;;;;;;;7.76;95.16;99689.28;5035504;28;97350;-31
2022/11/23 05:41:43;;;;;;;2.92;1.27;;;;;;;7.73;95.18;99694.88;5035097;28;96579;-30
2022/11/23 05:44:08;;;;;;;2.03;1.33;;;;;;;7.69;95.05;99692.50;5035213;28;96770;-31
2022/11/23 05:46:34;;;;;;;3.88;1.15;;;;;;;7.64;95.09;99699.06;5034539;28;97792;-31
2022/11/23 05:48:59;;;;;;;0.82;0.75;;;;;;;7.66;95.54;99701.66;5034979;28;103997;-30
2022/11/23 05:51:24;;;;;;;3.35;0.80;;;;;;;7.61;95.21;99698.41;5034843;28;101541;-31
2022/11/23 05:53:50;;;;;;;1.00;0.60;;;;;;;7.58;95.29;99694.09;5035255;28;96721;-31
2022/11/23 05:56:15;;;;;;;3.20;0.80;;;;;;;7.55;95.44;99696.97;5034678;28;104597;-32
2022/11/23 05:58:40;;;;;;;1.15;0.35;;;;;;;7.48;95.41;99689.41;5034857;28;97297;-31
2022/11/23 06:01:05;;;;;;;0.88;0.47;;;;;;;7.48;95.71;99692.97;5034767;28;104174;-30
2022/11/23 06:03:31;;;;;;;2.60;0.90;;;;;;;7.47;95.66;99679.63;5035532;28;96755;-31
2022/11/23 06:05:56;;;;;;;0.57;0.32;;;;;;;7.45;95.47;99685.09;5034690;28;103433;-30
2022/11/23 06:08:21;;;;;;;2.78;0.45;;;;;;;7.43;95.29;99682.50;5034439;28;99653;-32
2022/11/23 06:10:47;;;;;;;2.97;0.60;;;;;;;7.45;95.44;99688.66;5015632;28;96673;-31
2022/11/23 06:13:12;;;;;;;1.85;0.82;;;;;;;7.42;95.38;99685.31;5034979;28;96443;-31
2022/11/23 06:15:37;;;;;;;5.22;0.82;;;;;;;7.37;95.44;99687.47;5034548;28;96835;-31
2022/11/23 06:18:03;;;;;;;2.78;0.82;;;;;;;7.37;95.49;99690.16;5034432;28;105127;-31
2022/11/23 06:20:28;;;;;;;1.02;0.52;;;;;;;7.32;95.59;99685.06;5034599;28;96508;-30
2022/11/23 06:22:55;;;;;;;5.15;1.02;;;;;;;7.28;95.39;99678.16;5034886;28;96695;-30
2022/11/23 06:25:21;;;;;;;2.33;0.93;;;;;;;7.28;95.54;99682.69;5021673;28;101218;-31
2022/11/23 06:27:57;;;;;;;1.80;0.60;;;;;;;7.27;95.59;99686.34;5034814;27;97970;-31
2022/11/23 06:30:23;;;;;;;2.72;0.65;;;;;;;7.28;95.42;99693.47;5033100;28;96502;-30
2022/11/23 06:32:48;;;;;;;0.60;0.17;;;;;;;7.28;95.22;99688.94;5032929;28;96992;-31
2022/11/23 06:35:14;;;;;;;8.90;0.85;;;;;;;7.28;95.18;99688.06;5033971;27;97929;-31
2022/11/23 06:37:39;;;;;;;0.40;0.25;;;;;;;7.27;95.22;99691.72;5034154;27;97332;-31
2022/11/23 06:40:05;;;;;;;2.67;0.77;;;;;;;7.27;95.32;99692.59;5034330;27;96541;-32
2022/11/23 06:42:30;;;;;;;0.95;0.50;;;;;;;7.27;95.16;99683.63;5034330;27;96802;-31
2022/11/23 06:44:55;;;;;;;3.08;0.55;;;;;;;7.28;95.21;99688.06;5034067;28;105741;-30
2022/11/23 06:47:21;;;;;;;3.55;0.82;;;;;;;7.30;95.38;99686.16;5033870;28;107958;-30
2022/11/23 06:49:46;;;;;;;1.90;0.80;;;;;;;7.33;94.98;99702.09;5034362;27;96570;-31
2022/11/23 06:52:12;;;;;;;0.85;0.55;;;;;;;7.30;94.77;99702.31;5034436;28;99522;-32
2022/11/23 06:54:38;;;;;;;7.90;0.82;;;;;;;7.32;94.91;99706.63;5032493;28;101259;-31
2022/11/23 06:57:06;;;;;;;2.13;0.77;;;;;;;7.30;94.57;99705.84;5032552;28;100992;-30
2022/11/23 06:59:32;;;;;;;1.27;0.65;;;;;;;7.31;94.48;99704.88;5032234;28;96975;-33
2022/11/23 07:01:57;;;;;;;6.18;0.68;;;;;;;7.33;94.62;99710.19;5034017;28;96756;-31
2022/11/23 07:04:22;;;;;;;0.35;0.17;;;;;;;7.34;94.58;99714.59;5033867;27;99255;-30
2022/11/23 07:06:48;;;;;;;0.60;0.40;;;;;;;7.35;94.08;99716.34;5033231;28;109895;-31
2022/11/23 07:09:13;;;;;;;0.30;0.20;;;;;;;7.35;94.43;99717.19;5032936;28;113881;-31
2022/11/23 07:11:38;;;;;;;6.72;0.52;;;;;;;7.37;94.37;99725.19;5032306;27;97015;-31
2022/11/23 07:14:04;;;;;;;0.65;0.57;;;;;;;7.39;94.34;99723.25;5033770;27;97853;-31
2022/11/23 07:16:29;;;;;;;1.00;0.65;;;;;;;7.42;94.14;99733.81;5033827;28;97425;-31
2022/11/23 07:18:54;;;;;;;1.40;0.82;;;;;;;7.42;93.70;99728.44;5032461;27;97280;-31
2022/11/23 07:21:20;;;;;;;1.33;0.85;;;;;;;7.42;94.32;99744.59;5033422;28;106593;-31
2022/11/23 07:23:45;;;;;;;1.35;0.70;;;;;;;7.40;94.32;99738.44;5032940;27;99012;-31
2022/11/23 07:26:10;;;;;;;1.05;0.52;;;;;;;7.43;94.19;99743.63;5033245;27;97304;-30
2022/11/23 07:28:36;;;;;;;0.70;0.43;;;;;;;7.43;94.02;99740.91;5015529;28;96816;-30
2022/11/23 07:31:01;;;;;;;2.15;0.98;;;;;;;7.45;94.29;99752.47;5032777;28;96762;-31
2022/11/23 07:33:26;;;;;;;6.10;0.90;;;;;;;7.48;94.27;99751.38;5030756;28;111000;-31
2022/11/23 07:35:52;;;;;;;1.55;0.47;;;;;;;7.51;94.50;99756.56;5031297;28;98397;-34
2022/11/23 07:38:17;;;;;;;2.38;0.40;;;;;;;7.47;94.35;99753.22;5031463;28;96955;-32
2022/11/23 07:40:42;;;;;;;1.92;0.93;;;;;;;7.52;94.44;99759.16;5031463;28;97059;-31
2022/11/23 07:43:09;;;;;;;0.93;0.68;;;;;;;7.51;94.53;99757.47;5030744;28;109648;-31
2022/11/23 07:45:36;;;;;;;0.95;0.45;;;;;;;7.54;94.65;99762.63;5011818;28;101266;-32
2022/11/23 07:48:04;;;;;;;6.43;1.38;;;;;;;7.52;94.85;99758.31;5014467;28;97276;-30
2022/11/23 07:50:29;;;;;;;0.52;0.40;;;;;;;7.56;95.22;99767.94;5032997;28;96792;-31
2022/11/23 07:52:55;;;;;;;5.57;0.75;;;;;;;7.55;95.35;99772.44;5033171;28;97743;-30
2022/11/23 07:55:20;;;;;;;3.42;0.80;;;;;;;7.52;95.53;99780.72;5033118;28;98351;-32
2022/11/23 07:57:46;;;;;;;2.45;0.77;;;;;;;7.53;95.35;99779.78;5032988;28;96845;-31
2022/11/23 08:00:11;;;;;;;1.83;0.77;;;;;;;7.54;95.25;99781.50;5033029;28;96746;-31
2022/11/23 08:02:37;;;;;;;4.60;0.40;;;;;;;7.53;95.32;99779.78;5033187;28;99039;-31
2022/11/23 08:05:03;;;;;;;2.63;0.68;;;;;;;7.54;95.33;99781.50;5015235;28;101780;-30
2022/11/23 08:07:28;;;;;;;1.33;0.60;;;;;;;7.54;95.28;99781.50;5032832;28;96559;-30
2022/11/23 08:09:53;;;;;;;2.47;0.65;;;;;;;7.55;95.09;99776.97;5032757;28;96825;-31
2022/11/23 08:12:19;;;;;;;3.15;0.70;;;;;;;7.53;95.09;99774.38;5032334;28;97908;-31
2022/11/23 08:14:44;;;;;;;2.03;0.43;;;;;;;7.50;94.92;99768.31;5032755;28;98342;-31
2022/11/23 08:17:09;;;;;;;0.38;0.25;;;;;;;7.51;94.92;99776.31;5032410;28;107926;-32
2022/11/23 08:19:35;;;;;;;5.60;0.38;;;;;;;7.54;94.81;99772.56;5033018;28;96726;-30
2022/11/23 08:22:00;;;;;;;1.15;0.47;;;;;;;7.51;94.96;99765.53;5032519;28;97846;-30
2022/11/23 08:24:25;;;;;;;6.30;0.40;;;;;;;7.54;94.67;99777.94;5031774;27;113381;-30
2022/11/23 08:26:51;;;;;;;2.97;1.10;;;;;;;7.57;94.24;99780.44;4997846;28;96889;-31
2022/11/23 08:29:16;;;;;;;1.10;0.50;;;;;;;7.58;94.09;99779.44;5032954;28;96851;-31
2022/11/23 08:31:42;;;;;;;0.88;0.50;;;;;;;7.59;93.76;99784.75;5032647;28;98553;-32
2022/11/23 08:34:08;;;;;;;14.15;0.90;;;;;;;7.64;93.69;99779.91;5014160;28;101330;-31
2022/11/23 08:36:33;;;;;;;0.55;0.32;;;;;;;7.71;93.18;99787.59;5032013;28;96526;-32
2022/11/23 08:38:58;;;;;;;3.22;0.77;;;;;;;7.79;93.24;99790.63;5032792;28;96677;-31
2022/11/23 08:41:24;;;;;;;1.85;0.40;;;;;;;7.82;92.90;99777.81;5032236;28;109931;-32
2022/11/23 08:43:50;;;;;;;0.08;0.08;;;;;;;7.81;91.93;99780.59;5032341;28;97853;-31
2022/11/23 08:46:16;;;;;;;3.53;0.55;;;;;;;7.89;91.90;99783.66;5032092;28;96558;-31
2022/11/23 08:48:41;;;;;;;5.45;1.35;;;;;;;7.87;91.56;99774.81;5014185;28;96806;-31
2022/11/23 08:51:07;;;;;;;1.17;0.47;;;;;;;7.91;91.31;99788.94;5031918;28;99267;-31
2022/11/23 08:53:33;;;;;;;0.77;0.57;;;;;;;7.85;90.99;99774.06;5014451;28;100989;-31
2022/11/23 08:56:03;;;;;;;1.00;0.40;;;;;;;7.87;91.01;99772.13;5032296;28;96581;-31
2022/11/23 08:58:29;;;;;;;2.03;0.85;;;;;;;7.86;90.19;99767.69;5014254;28;96727;-30
2022/11/23 09:00:54;;;;;;;1.52;0.38;;;;;;;7.84;90.47;99767.81;5031671;28;97416;-31
2022/11/23 09:03:19;;;;;;;1.40;0.38;;;;;;;7.84;89.47;99769.63;5032198;28;97891;-30
2022/11/23 09:05:45;;;;;;;2.05;0.32;;;;;;;7.87;89.80;99764.03;5013759;28;96775;-31
2022/11/23 09:08:11;;;;;;;1.50;0.47;;;;;;;7.84;87.68;99756.13;5032199;28;96793;-31
2022/11/23 09:10:36;;;;;;;4.22;0.80;;;;;;;7.81;87.32;99750.97;5032176;28;97534;-32
2022/11/23 09:13:02;;;;;;;1.75;0.40;;;;;;;7.82;87.67;99739.22;5031938;28;97866;-30
2022/11/23 09:15:28;;;;;;;0.38;0.32;;;;;;;7.80;86.80;99731.22;5032198;28;96697;-31
2022/11/23 09:17:53;;;;;;;1.30;0.50;;;;;;;7.87;88.14;99723.59;5032187;28;96757;-31
2022/11/23 09:20:19;;;;;;;4.68;1.40;;;;;;;7.91;88.37;99708.91;5031911;28;97492;-31
2022/11/23 09:22:52;;;;;;;2.53;0.90;;;;;;;7.93;87.34;99703.41;5032031;28;97795;-31
2022/11/23 09:25:19;;;;;;;5.47;1.63;;;;;;;7.94;88.45;99692.53;5018723;28;100255;-31
2022/11/23 09:27:44;;;;;;;2.95;1.27;;;;;;;7.98;87.87;99701.25;5030307;28;97265;-31
2022/11/23 09:30:10;;;;;;;4.10;1.27;;;;;;;7.99;87.45;99690.38;5031343;27;110998;-31
2022/11/23 09:32:35;;;;;;;1.95;0.50;;;;;;;8.03;86.71;99697.31;5031777;28;97705;-31
2022/11/23 09:35:01;;;;;;;4.53;0.93;;;;;;;8.03;86.78;99697.31;5031757;27;97301;-31
2022/11/23 09:37:26;;;;;;;2.10;0.88;;;;;;;8.08;87.05;99695.13;5031934;27;96714;-31
2022/11/23 09:39:51;;;;;;;1.50;0.85;;;;;;;8.14;87.30;99693.84;5031669;27;98873;-31
2022/11/23 09:42:40;;;;;;;3.88;0.93;;;;;;;8.19;86.93;99691.69;5031586;28;111189;-30
2022/11/23 09:45:24;;;;;;;1.33;0.57;;;;;;;8.20;86.60;99690.72;5030425;28;96721;-31
2022/11/23 09:48:35;;;;;;;1.63;0.73;;;;;;;8.20;86.44;99687.13;5031845;28;96803;-30
2022/11/23 09:51:15;;;;;;;3.28;0.85;;;;;;;8.20;85.64;99706.03;5031139;28;97862;-31
2022/11/23 09:53:52;;;;;;;3.35;0.80;;;;;;;8.25;85.94;99706.59;5029757;28;100283;-31
2022/11/23 09:56:31;;;;;;;3.85;1.17;;;;;;;8.24;85.05;99705.69;5030313;28;96597;-30
2022/11/23 09:59:00;;;;;;;2.75;0.50;;;;;;;8.21;85.21;99719.41;5030165;28;97873;-31
2022/11/23 10:01:26;;;;;;;1.63;0.50;;;;;;;8.15;85.82;99710.88;5030063;28;101162;-31
2022/11/23 10:03:52;;;;;;;4.97;1.10;;;;;;;8.06;85.31;99721.34;5031292;27;98759;-30
2022/11/23 10:06:26;;;;;;;3.45;0.85;;;;;;;8.01;85.71;99719.97;5029872;28;96628;-32
2022/11/23 10:09:19;;;;;;;1.75;0.68;;;;;;;7.84;85.27;99721.09;5032359;27;96897;-30
2022/11/23 10:11:44;;;;;;;1.40;0.93;;;;;;;7.80;86.25;99735.75;5034592;28;97909;-31
2022/11/23 10:14:25;;;;;;;0.75;0.63;;;;;;;7.70;85.95;99731.94;5034905;27;97775;-31
2022/11/23 10:16:57;;;;;;;5.60;1.30;;;;;;;7.72;86.07;99730.00;5032710;28;96694;-31
2022/11/23 10:19:28;;;;;;;0.63;0.52;;;;;;;7.70;86.10;99729.25;5034887;27;96659;-30
2022/11/23 10:22:28;;;;;;;0.80;0.57;;;;;;;7.71;86.41;99717.50;5034924;28;97427;-31
2022/11/23 10:24:54;;;;;;;3.97;1.48;;;;;;;7.66;87.06;99724.06;5029677;27;97686;-32
2022/11/23 10:27:22;;;;;;;0.63;0.32;;;;;;;7.59;86.72;99730.84;5034349;28;96593;-30
2022/11/23 10:29:49;;;;;;;2.53;1.00;;;;;;;7.51;86.54;99733.22;5016224;28;96958;-32
2022/11/23 10:32:29;;;;;;;1.90;0.75;;;;;;;7.46;86.61;99738.03;5034196;28;99250;-31
2022/11/23 10:35:10;;;;;;;3.15;0.90;;;;;;;7.42;87.25;99723.03;5034922;28;97805;-31
2022/11/23 10:37:38;;;;;;;0.50;0.50;;;;;;;7.45;87.43;99723.69;5016291;28;96599;-30
2022/11/23 10:40:10;;;;;;;6.00;1.20;;;;;;;7.49;87.31;99716.28;5016377;28;96755;-32
2022/11/23 10:42:43;;;;;;;1.88;0.82;;;;;;;7.48;86.88;99713.66;5033952;28;97465;-31
2022/11/23 10:45:23;;;;;;;2.38;0.65;;;;;;;7.48;86.54;99714.53;5016072;28;100509;-31
2022/11/23 10:47:50;;;;;;;2.47;0.85;;;;;;;7.49;87.22;99707.34;5015824;28;96648;-31
2022/11/23 10:50:29;;;;;;;2.33;1.02;;;;;;;7.51;87.25;99699.97;5016228;28;96791;-31
2022/11/23 10:52:58;;;;;;;2.50;0.70;;;;;;;7.55;86.68;99690.72;5034264;28;98043;-31
2022/11/23 10:55:27;;;;;;;1.10;0.80;;;;;;;7.58;86.08;99683.31;5015807;28;101221;-30
2022/11/23 10:57:53;;;;;;;2.08;1.20;;;;;;;7.70;85.92;99668.16;5015995;28;96984;-31
2022/11/23 11:00:21;;;;;;;2.53;0.93;;;;;;;7.92;86.23;99663.97;5016179;28;96814;-30
2022/11/23 11:02:53;;;;;;;3.38;1.02;;;;;;;8.02;85.11;99644.31;5015730;28;101453;-31
2022/11/23 11:05:25;;;;;;;2.17;1.00;;;;;;;8.08;83.65;99649.28;5015481;28;100939;-31
2022/11/23 11:07:50;;;;;;;6.40;0.88;;;;;;;8.13;83.93;99643.56;5033385;28;96545;-30
2022/11/23 11:10:34;;;;;;;2.63;1.25;;;;;;;8.23;83.98;99628.44;5015423;28;96919;-31
2022/11/23 11:12:59;;;;;;;7.32;0.80;;;;;;;8.26;84.13;99638.16;5033710;28;97549;-31
2022/11/23 11:15:25;;;;;;;2.28;1.10;;;;;;;8.32;82.97;99640.44;5033810;28;97943;-31
2022/11/23 11:17:58;;;;;;;0.73;0.32;;;;;;;8.39;83.13;99630.03;5033854;28;96616;-30
2022/11/23 11:20:26;;;;;;;4.72;1.02;;;;;;;8.46;83.06;99631.34;5014284;28;96856;-31
2022/11/23 11:22:52;;;;;;;3.40;0.63;;;;;;;8.51;83.23;99618.41;5033923;28;97404;-31
2022/11/23 11:25:32;;;;;;;6.38;0.82;;;;;;;8.64;83.36;99621.91;5023898;27;100841;-31
2022/11/23 11:27:58;;;;;;;1.45;0.60;;;;;;;8.66;83.28;99619.13;5035545;27;96497;-30
2022/11/23 11:30:27;;;;;;;2.03;0.57;;;;;;;8.64;82.98;99610.25;5035621;27;96838;-32
2022/11/23 11:32:52;;;;;;;1.77;0.77;;;;;;;8.61;82.45;99615.91;5034846;27;100862;-31
2022/11/23 11:35:44;;;;;;;1.90;0.68;;;;;;;8.62;82.41;99621.16;5053615;27;99293;-32
2022/11/23 11:38:23;;;;;;;4.75;0.55;;;;;;;8.74;83.24;99607.75;5035464;27;96744;-32
2022/11/23 11:40:50;;;;;;;7.70;0.88;;;;;;;8.77;82.78;99597.59;5035553;27;96753;-32